Notice: Undefined offset: 173 in /var/www/vhosts/pa0isk.nl/httpdocs/pwsWD/w34_livedata.php on line 151

Notice: Undefined index: name in /var/www/vhosts/pa0isk.nl/httpdocs/pwsWD/metar_load_funct.php on line 61

Notice: Undefined index: humidity_percent in /var/www/vhosts/pa0isk.nl/httpdocs/pwsWD/metar_load_funct.php on line 103
Weather34 Metar Aviation Weather Data Popup
19°C Temp
'.PHP_EOL;
8°C Dauwpunt
% Vochtigheid
Temperatuur
10 KM/H
6 MPH
5 KTS
50°
Noord Oost

Wind Snelheid
Helder
Luchtdruk 1020.92 (hPa)- 30.15 (in)
Zicht 6.2 (mi) - 10 (km)

Huidig weer
EHRD
Locatie 10(km)
Metar:
EHRD 210955Z AUTO 05005KT 350V100 9999 NCD 19/08 Q1021 NOSIG

Notice: Undefined offset: 1 in /var/www/vhosts/pa0isk.nl/httpdocs/pwsWD/metar_popup.php on line 285

Notice: Undefined offset: 1 in /var/www/vhosts/pa0isk.nl/httpdocs/pwsWD/metar_popup.php on line 287

Warning: gmmktime() expects parameter 1 to be integer, string given in /var/www/vhosts/pa0isk.nl/httpdocs/pwsWD/metar_popup.php on line 288
Thu 1st January 01:00 am

Vliegveld
  Metar Aviation API Data Provided by https://www.checkwx.com/